createdAt,value
2022-11-26T00:30:06.076Z,0
2022-11-26T00:30:46.494Z,0
2022-11-26T00:31:27.045Z,0
2022-11-26T00:36:51.013Z,0
2022-11-26T00:37:31.497Z,0
2022-11-26T00:38:12.005Z,0
2022-11-26T00:38:52.493Z,0
2022-11-26T00:39:33.038Z,0
2022-11-26T00:40:13.554Z,0
2022-11-26T00:40:54.055Z,0
2022-11-26T00:41:34.556Z,0
2022-11-26T00:42:15.070Z,0
2022-11-26T00:43:00.228Z,0
2022-11-26T00:50:21.076Z,0
2022-11-26T00:51:01.596Z,0
2022-11-26T00:51:42.104Z,0
2022-11-26T00:52:22.590Z,0
2022-11-26T00:53:03.085Z,0
2022-11-26T00:53:43.594Z,0
2022-11-26T00:54:24.090Z,0
2022-11-26T00:55:04.576Z,0
2022-11-26T00:55:45.149Z,0
2022-11-26T00:56:25.626Z,0
2022-11-26T01:03:10.764Z,0
2022-11-26T01:03:51.267Z,0
2022-11-26T01:05:12.281Z,0
2022-11-26T01:05:52.757Z,0
2022-11-26T01:06:33.902Z,0
2022-11-26T01:07:13.804Z,0
2022-11-26T01:07:54.318Z,0
2022-11-26T01:08:34.756Z,0
2022-11-26T01:09:15.243Z,0
2022-11-26T01:16:40.952Z,0
2022-11-26T01:17:21.326Z,0
2022-11-26T01:18:01.826Z,0
2022-11-26T01:18:42.367Z,0
2022-11-26T01:19:23.123Z,0
2022-11-26T01:20:03.658Z,0
2022-11-26T01:20:44.118Z,0
2022-11-26T01:21:24.583Z,0
2022-11-26T01:22:45.611Z,0
2022-11-26T01:30:10.983Z,0
2022-11-26T01:30:51.469Z,0
2022-11-26T01:31:32.082Z,0
2022-11-26T01:32:12.520Z,0
2022-11-26T01:32:52.996Z,0
2022-11-26T01:33:33.516Z,0
2022-11-26T01:34:14.018Z,0
2022-11-26T01:34:54.521Z,0
2022-11-26T01:35:35.020Z,0
2022-11-26T01:36:15.523Z,0
2022-11-26T01:43:00.753Z,0
2022-11-26T01:43:41.286Z,0
2022-11-26T01:44:21.834Z,0
2022-11-26T01:45:02.297Z,0
2022-11-26T01:45:42.887Z,0
2022-11-26T01:46:23.278Z,0
2022-11-26T01:47:03.785Z,0
2022-11-26T01:47:44.938Z,0
2022-11-26T01:48:24.776Z,0
2022-11-26T01:49:05.311Z,0
2022-11-26T01:56:30.886Z,0
2022-11-26T01:57:11.452Z,0
2022-11-26T01:57:51.920Z,0
2022-11-26T01:58:35.585Z,0
2022-11-26T01:59:12.868Z,0
2022-11-26T01:59:53.392Z,0
2022-11-26T02:00:33.866Z,0
2022-11-26T02:01:14.457Z,0
2022-11-26T02:01:54.968Z,0
2022-11-26T02:02:35.467Z,0
2022-11-26T02:10:00.890Z,0
2022-11-26T02:10:41.354Z,0
2022-11-26T02:11:21.879Z,0
2022-11-26T02:12:02.311Z,0
2022-11-26T02:12:42.780Z,0
2022-11-26T02:13:23.286Z,0
2022-11-26T02:14:03.805Z,0
2022-11-26T02:14:44.352Z,0
2022-11-26T02:15:24.848Z,0
2022-11-26T02:22:51.520Z,0
2022-11-26T02:23:31.987Z,0
2022-11-26T02:24:12.496Z,0
2022-11-26T02:24:52.992Z,0
2022-11-26T02:25:33.485Z,0
2022-11-26T02:26:13.998Z,0
2022-11-26T02:26:54.513Z,0
2022-11-26T02:27:35.028Z,0
2022-11-26T02:28:15.522Z,0
2022-11-26T02:35:40.958Z,0
2022-11-26T02:36:21.411Z,0
2022-11-26T02:37:01.913Z,0
2022-11-26T02:37:42.403Z,0
2022-11-26T02:38:22.904Z,0
2022-11-26T02:39:03.383Z,0
2022-11-26T02:39:43.876Z,0
2022-11-26T02:40:24.395Z,0
2022-11-26T02:41:04.890Z,0
2022-11-26T02:41:45.401Z,0
2022-11-26T02:49:10.792Z,0
2022-11-26T02:49:51.302Z,0
2022-11-26T02:50:31.764Z,0
2022-11-26T02:51:52.771Z,0
2022-11-26T02:52:33.240Z,0
2022-11-26T02:53:13.721Z,0
2022-11-26T02:53:54.213Z,0
2022-11-26T02:54:34.701Z,0
2022-11-26T02:55:15.176Z,0
2022-11-26T02:55:55.690Z,0
2022-11-26T03:03:21.121Z,0
2022-11-26T03:04:01.672Z,0
2022-11-26T03:04:42.086Z,0
2022-11-26T03:05:22.655Z,0
2022-11-26T03:06:03.118Z,0
2022-11-26T03:06:43.600Z,0
2022-11-26T03:07:24.179Z,0
2022-11-26T03:08:04.580Z,0
2022-11-26T03:08:45.102Z,0
2022-11-26T03:09:25.613Z,0
2022-11-26T03:16:11.892Z,0
2022-11-26T03:16:52.322Z,0
2022-11-26T03:17:32.766Z,0
2022-11-26T03:18:13.253Z,0
2022-11-26T03:19:34.213Z,0
2022-11-26T03:20:14.721Z,0
2022-11-26T03:20:55.190Z,0
2022-11-26T03:21:35.687Z,0
2022-11-26T03:28:20.662Z,0
2022-11-26T03:29:01.128Z,0
2022-11-26T03:29:41.611Z,0
2022-11-26T03:30:22.120Z,0
2022-11-26T03:31:02.666Z,0
2022-11-26T03:31:43.259Z,0
2022-11-26T03:32:23.664Z,0
2022-11-26T03:33:04.198Z,0
2022-11-26T03:33:44.668Z,0
2022-11-26T03:34:25.161Z,0
2022-11-26T03:35:05.629Z,0
2022-11-26T03:41:50.695Z,0
2022-11-26T03:42:31.119Z,0
2022-11-26T03:43:11.666Z,0
2022-11-26T03:43:52.138Z,0
2022-11-26T03:44:32.716Z,0
2022-11-26T03:45:13.136Z,0
2022-11-26T03:45:53.704Z,0
2022-11-26T03:46:34.106Z,0
2022-11-26T03:47:14.687Z,0
2022-11-26T03:47:55.139Z,0
2022-11-26T03:48:35.603Z,0
2022-11-26T03:55:20.684Z,0
2022-11-26T03:56:01.154Z,0
2022-11-26T03:56:41.660Z,0
2022-11-26T03:57:22.139Z,0
2022-11-26T03:58:02.671Z,0
2022-11-26T03:59:23.601Z,0
2022-11-26T04:00:04.140Z,0
2022-11-26T04:00:44.648Z,0
2022-11-26T04:01:25.244Z,0
2022-11-26T04:02:05.670Z,0
2022-11-26T04:10:02.687Z,0
2022-11-26T04:10:43.153Z,0
2022-11-26T04:11:23.626Z,0
2022-11-26T04:16:47.630Z,0
2022-11-26T04:17:28.077Z,0
2022-11-26T04:18:08.573Z,0
2022-11-26T04:18:49.065Z,0
2022-11-26T04:19:29.581Z,0
2022-11-26T04:20:10.093Z,0
2022-11-26T04:20:53.172Z,0
2022-11-26T04:21:31.055Z,0
2022-11-26T04:22:11.589Z,0
2022-11-26T04:22:52.083Z,0
2022-11-26T04:30:17.461Z,0
2022-11-26T04:30:57.930Z,0
2022-11-26T04:31:38.480Z,0
2022-11-26T04:32:18.931Z,0
2022-11-26T04:32:59.419Z,0
2022-11-26T04:33:39.886Z,0
2022-11-26T04:34:20.361Z,0
2022-11-26T04:35:00.912Z,0
2022-11-26T04:35:41.379Z,0
2022-11-26T04:36:21.898Z,0
2022-11-26T04:37:02.423Z,0
2022-11-26T04:44:27.834Z,0
2022-11-26T04:45:08.317Z,0
2022-11-26T04:45:48.865Z,0
2022-11-26T04:46:29.280Z,0
2022-11-26T04:47:09.779Z,0
2022-11-26T04:47:50.267Z,0
2022-11-26T04:48:30.741Z,0
2022-11-26T04:49:11.225Z,0
2022-11-26T04:49:51.717Z,0
2022-11-26T04:50:32.234Z,0
2022-11-26T04:57:57.615Z,0
2022-11-26T04:58:38.127Z,0
2022-11-26T04:59:18.601Z,0
2022-11-26T04:59:59.100Z,0
2022-11-26T05:00:40.209Z,0
2022-11-26T05:01:20.121Z,0
2022-11-26T05:02:00.578Z,0
2022-11-26T05:02:41.205Z,0
2022-11-26T05:03:21.583Z,0
2022-11-26T05:04:02.104Z,0
2022-11-26T05:10:47.786Z,0
2022-11-26T05:14:57.412Z,0
2022-11-26T05:15:37.903Z,0
2022-11-26T05:16:18.459Z,0
2022-11-26T05:16:59.063Z,0
2022-11-26T05:17:39.425Z,0
2022-11-26T05:18:19.869Z,0
2022-11-26T05:19:00.355Z,0
2022-11-26T05:19:40.829Z,0
2022-11-26T05:20:21.318Z,0
2022-11-26T05:21:01.837Z,0
2022-11-26T05:21:42.333Z,0
2022-11-26T05:29:07.704Z,0
2022-11-26T05:29:48.250Z,0
2022-11-26T05:30:28.727Z,0
2022-11-26T05:31:09.215Z,0
2022-11-26T05:31:49.809Z,0
2022-11-26T05:32:30.192Z,0
2022-11-26T05:33:10.681Z,0
2022-11-26T05:33:51.159Z,0
2022-11-26T05:34:31.679Z,0
2022-11-26T05:35:12.208Z,0
2022-11-26T05:42:37.600Z,0
2022-11-26T05:43:18.108Z,0
2022-11-26T05:43:58.548Z,0
2022-11-26T05:44:39.350Z,0
2022-11-26T05:45:19.572Z,0
2022-11-26T05:46:00.135Z,0
2022-11-26T05:46:40.566Z,0
2022-11-26T05:47:21.041Z,0
2022-11-26T05:48:01.547Z,0
2022-11-26T05:48:42.039Z,0
2022-11-26T06:32:43.918Z,0
2022-11-26T06:33:24.383Z,0
2022-11-26T06:34:04.822Z,0
2022-11-26T06:39:28.674Z,0
2022-11-26T06:40:09.177Z,0
2022-11-26T06:40:49.651Z,0
2022-11-26T06:41:30.128Z,0
2022-11-26T06:42:10.621Z,0
2022-11-26T06:42:51.134Z,0
2022-11-26T06:43:31.617Z,0
2022-11-26T06:44:55.891Z,0
2022-11-26T06:45:33.194Z,0
2022-11-26T06:52:58.627Z,0
2022-11-26T06:53:39.114Z,0
2022-11-26T06:54:19.644Z,0
2022-11-26T06:55:00.157Z,0
2022-11-26T06:55:40.642Z,0
2022-11-26T06:56:21.158Z,0
2022-11-26T06:57:01.641Z,0
2022-11-26T06:57:42.139Z,0
2022-11-26T06:58:22.636Z,0
2022-11-26T06:59:03.144Z,0
2022-11-26T07:06:28.739Z,0
2022-11-26T07:07:09.256Z,0
2022-11-26T07:07:49.824Z,0
2022-11-26T07:08:30.237Z,0
2022-11-26T07:09:10.728Z,0
2022-11-26T07:09:51.219Z,0
2022-11-26T07:10:31.781Z,0
2022-11-26T07:11:12.252Z,0
2022-11-26T07:11:52.766Z,0
2022-11-26T07:12:33.333Z,0
2022-11-26T07:19:18.885Z,5
2022-11-26T07:19:59.360Z,5
2022-11-26T07:20:39.900Z,5
2022-11-26T07:21:20.410Z,5
2022-11-26T07:22:00.913Z,5
2022-11-26T07:22:41.415Z,5
2022-11-26T07:23:22.043Z,5
2022-11-26T07:24:02.522Z,5
2022-11-26T07:24:43.022Z,10
2022-11-26T07:25:23.549Z,10
2022-11-26T07:32:08.664Z,10
2022-11-26T07:32:49.111Z,10
2022-11-26T07:33:29.664Z,10
2022-11-26T07:34:10.111Z,15
2022-11-26T07:34:50.650Z,15
2022-11-26T07:35:31.145Z,15
2022-11-26T07:36:11.642Z,15
2022-11-26T07:39:51.754Z,15
2022-11-26T07:40:32.225Z,15
2022-11-26T07:41:12.727Z,15
2022-11-26T07:41:53.161Z,15
2022-11-26T07:46:36.584Z,15
2022-11-26T07:47:17.113Z,15
2022-11-26T07:47:57.620Z,15
2022-11-26T07:48:38.090Z,15
2022-11-26T07:49:18.606Z,15
2022-11-26T07:49:59.130Z,15
2022-11-26T07:50:39.590Z,15
2022-11-26T07:51:20.142Z,20
2022-11-26T07:52:00.635Z,20
2022-11-26T07:52:41.139Z,20
2022-11-26T08:00:06.673Z,20
2022-11-26T08:00:49.681Z,20
2022-11-26T08:01:27.625Z,20
2022-11-26T08:02:08.167Z,20
2022-11-26T08:02:48.688Z,20
2022-11-26T08:03:29.149Z,20
2022-11-26T08:04:09.623Z,20
2022-11-26T08:04:50.104Z,20
2022-11-26T08:05:30.754Z,20
2022-11-26T08:06:11.163Z,20
2022-11-26T08:12:56.739Z,20
2022-11-26T08:13:37.270Z,20
2022-11-26T08:14:17.751Z,20
2022-11-26T08:14:58.270Z,20
2022-11-26T08:15:38.752Z,20
2022-11-26T08:16:19.297Z,20
2022-11-26T08:17:40.452Z,20
2022-11-26T08:18:20.919Z,20
2022-11-26T08:19:01.381Z,20
2022-11-26T08:24:26.381Z,20
2022-11-26T08:25:06.834Z,20
2022-11-26T08:26:06.380Z,20
2022-11-26T08:26:33.844Z,20
2022-11-26T08:27:08.332Z,20
2022-11-26T08:27:48.816Z,20
2022-11-26T08:28:29.333Z,20
2022-11-26T08:29:09.855Z,25
2022-11-26T08:29:50.374Z,25
2022-11-26T08:30:30.836Z,25
2022-11-26T08:31:11.335Z,25
2022-11-26T08:38:36.770Z,25
2022-11-26T08:39:17.282Z,25
2022-11-26T08:39:57.759Z,25
2022-11-26T08:40:38.259Z,25
2022-11-26T08:41:18.750Z,25
2022-11-26T08:41:59.237Z,25
2022-11-26T08:42:39.717Z,25
2022-11-26T08:43:20.213Z,25
2022-11-26T08:44:08.527Z,25
2022-11-26T08:44:42.181Z,25
2022-11-26T08:52:06.660Z,25
2022-11-26T08:52:47.121Z,25
2022-11-26T08:53:27.605Z,25
2022-11-26T08:54:08.130Z,25
2022-11-26T08:54:48.920Z,25
2022-11-26T08:55:46.663Z,25
2022-11-26T08:56:09.662Z,25
2022-11-26T08:56:50.137Z,25
2022-11-26T08:57:30.656Z,25
2022-11-26T08:58:11.122Z,25
2022-11-26T09:05:36.602Z,25
2022-11-26T09:06:17.233Z,25
2022-11-26T09:06:57.663Z,25
2022-11-26T09:07:38.249Z,25
2022-11-26T09:08:18.694Z,25
2022-11-26T09:08:59.199Z,25
2022-11-26T09:09:39.741Z,25
2022-11-26T09:10:20.271Z,25
2022-11-26T09:11:00.768Z,25
2022-11-26T09:11:41.250Z,25
2022-11-26T09:19:06.836Z,25
2022-11-26T09:19:47.349Z,30
2022-11-26T09:20:27.850Z,30
2022-11-26T09:21:08.315Z,25
2022-11-26T09:22:29.365Z,25
2022-11-26T09:23:09.884Z,25
2022-11-26T09:23:50.481Z,30
2022-11-26T09:24:30.843Z,35
2022-11-26T09:25:11.349Z,30
2022-11-26T09:32:36.948Z,30
2022-11-26T09:33:17.636Z,30
2022-11-26T09:33:58.876Z,35
2022-11-26T09:35:19.892Z,35
2022-11-26T09:36:00.424Z,35
2022-11-26T09:36:40.912Z,30
2022-11-26T09:37:21.453Z,25
2022-11-26T09:43:26.810Z,25
2022-11-26T09:44:07.303Z,25
2022-11-26T09:44:47.827Z,25
2022-11-26T09:45:28.372Z,25
2022-11-26T09:46:08.927Z,25
2022-11-26T09:47:10.298Z,25
2022-11-26T09:48:10.379Z,25
2022-11-26T09:48:50.915Z,25
2022-11-26T09:49:31.402Z,25
2022-11-26T09:56:16.456Z,25
2022-11-26T09:56:56.964Z,25
2022-11-26T09:57:37.504Z,25
2022-11-26T09:58:21.038Z,25
2022-11-26T09:58:58.516Z,25
2022-11-26T09:59:39.078Z,25
2022-11-26T10:00:19.530Z,25
2022-11-26T10:01:00.157Z,25
2022-11-26T10:01:40.685Z,25
2022-11-26T10:02:21.189Z,25
2022-11-26T10:09:46.845Z,25
2022-11-26T10:10:27.349Z,25
2022-11-26T10:11:07.800Z,25
2022-11-26T10:11:48.345Z,25
2022-11-26T10:12:28.836Z,25
2022-11-26T10:13:18.841Z,25
2022-11-26T10:13:50.323Z,25
2022-11-26T10:14:30.776Z,25
2022-11-26T10:15:11.271Z,25
2022-11-26T10:21:59.217Z,30
2022-11-26T10:22:37.238Z,30
2022-11-26T10:23:17.858Z,25
2022-11-26T10:23:58.438Z,30
2022-11-26T10:24:39.292Z,30
2022-11-26T10:25:19.408Z,30
2022-11-26T10:25:59.906Z,30
2022-11-26T10:26:40.397Z,30
2022-11-26T10:27:20.900Z,30
2022-11-26T10:28:01.434Z,30
2022-11-26T10:34:46.651Z,30
2022-11-26T10:35:26.969Z,30
2022-11-26T10:36:07.556Z,30
2022-11-26T10:36:48.002Z,30
2022-11-26T10:37:28.497Z,30
2022-11-26T10:38:09.076Z,30
2022-11-26T10:38:49.639Z,30
2022-11-26T10:39:30.144Z,25
2022-11-26T10:40:10.600Z,25
2022-11-26T10:40:51.147Z,25
2022-11-26T10:48:16.834Z,25
2022-11-26T10:48:57.353Z,25
2022-11-26T10:49:37.887Z,25
2022-11-26T10:50:45.857Z,25
2022-11-26T10:50:58.874Z,25
2022-11-26T10:51:39.420Z,25
2022-11-26T10:52:19.869Z,25
2022-11-26T10:53:00.442Z,25
2022-11-26T10:53:40.876Z,25
2022-11-26T10:54:21.365Z,20
2022-11-26T11:00:26.913Z,20
2022-11-26T11:01:07.349Z,20
2022-11-26T11:01:50.244Z,20
2022-11-26T11:02:28.355Z,20
2022-11-26T11:03:08.822Z,20
2022-11-26T11:04:29.959Z,20
2022-11-26T11:05:10.488Z,25
2022-11-26T11:05:51.008Z,25
2022-11-26T11:13:16.565Z,25
2022-11-26T11:13:57.120Z,25
2022-11-26T11:14:42.323Z,25
2022-11-26T11:15:18.182Z,25
2022-11-26T11:15:58.715Z,25
2022-11-26T11:16:39.178Z,25
2022-11-26T11:17:19.699Z,25
2022-11-26T11:18:00.184Z,25
2022-11-26T11:18:40.729Z,25
2022-11-26T11:19:21.173Z,25
2022-11-26T11:26:06.850Z,25
2022-11-26T11:26:47.334Z,25
2022-11-26T11:27:27.932Z,25
2022-11-26T11:28:12.135Z,25
2022-11-26T11:28:48.949Z,25
2022-11-26T11:30:09.947Z,20
2022-11-26T11:30:50.459Z,20
2022-11-26T11:31:31.007Z,20
2022-11-26T11:37:36.516Z,25
2022-11-26T11:38:17.074Z,25
2022-11-26T11:38:57.594Z,20
2022-11-26T11:39:38.160Z,20
2022-11-26T11:40:18.600Z,20
2022-11-26T11:40:59.096Z,20
2022-11-26T11:41:39.614Z,20
2022-11-26T11:44:07.504Z,20
2022-11-26T11:44:48.183Z,20
2022-11-26T11:45:28.751Z,20
2022-11-26T11:50:12.337Z,20
2022-11-26T11:50:52.854Z,20
2022-11-26T11:51:33.402Z,20
2022-11-26T11:52:13.919Z,20
2022-11-26T11:52:54.398Z,20
2022-11-26T11:53:34.909Z,20
2022-11-26T11:54:15.451Z,20
2022-11-26T12:32:42.828Z,20
2022-11-26T12:33:23.340Z,20
2022-11-26T12:34:08.293Z,20
2022-11-26T12:38:47.425Z,20
2022-11-26T12:39:27.893Z,20
2022-11-26T12:40:08.403Z,20
2022-11-26T12:40:48.909Z,20
2022-11-26T12:41:29.441Z,20
2022-11-26T12:42:09.926Z,20
2022-11-26T12:42:50.444Z,20
2022-11-26T12:43:30.904Z,20
2022-11-26T12:45:59.843Z,15
2022-11-26T12:46:40.315Z,15
2022-11-26T12:47:20.992Z,15
2022-11-26T12:51:56.458Z,15
2022-11-26T12:52:37.113Z,15
2022-11-26T12:53:17.616Z,15
2022-11-26T12:58:01.095Z,15
2022-11-26T12:58:42.192Z,15
2022-11-26T13:00:02.617Z,15
2022-11-26T13:00:43.171Z,15
2022-11-26T13:01:23.735Z,15
2022-11-26T13:02:04.179Z,15
2022-11-26T13:02:44.737Z,15
2022-11-26T13:03:25.188Z,15
2022-11-26T13:04:35.987Z,15
2022-11-26T13:04:46.167Z,15
2022-11-26T13:11:31.188Z,15
2022-11-26T13:12:11.656Z,15
2022-11-26T13:12:52.149Z,15
2022-11-26T13:13:32.631Z,15
2022-11-26T13:14:13.104Z,15
2022-11-26T13:14:53.600Z,15
2022-11-26T13:15:34.086Z,15
2022-11-26T13:16:14.707Z,15
2022-11-26T13:16:55.149Z,15
2022-11-26T13:17:35.615Z,15
2022-11-26T13:18:16.138Z,15
2022-11-26T13:25:01.193Z,20
2022-11-26T13:25:41.705Z,20
2022-11-26T13:26:22.222Z,20
2022-11-26T13:27:02.722Z,20
2022-11-26T13:27:43.272Z,20
2022-11-26T13:28:23.756Z,20
2022-11-26T13:29:04.289Z,20
2022-11-26T13:29:44.810Z,20
2022-11-26T13:30:25.312Z,20
2022-11-26T13:31:05.819Z,20
2022-11-26T13:38:31.339Z,20
2022-11-26T13:39:11.870Z,15
2022-11-26T13:39:52.349Z,15
2022-11-26T13:40:32.846Z,15
2022-11-26T13:41:13.419Z,15
2022-11-26T13:41:53.888Z,15
2022-11-26T13:42:34.387Z,15
2022-11-26T13:43:14.870Z,15
2022-11-26T13:43:55.427Z,15
2022-11-26T13:44:35.939Z,15
2022-11-26T13:52:01.566Z,15
2022-11-26T13:52:42.060Z,15
2022-11-26T13:53:26.655Z,15
2022-11-26T13:54:03.077Z,15
2022-11-26T13:54:43.529Z,15
2022-11-26T13:55:24.084Z,15
2022-11-26T13:56:04.601Z,15
2022-11-26T13:56:45.101Z,15
2022-11-26T13:57:25.598Z,15
2022-11-26T13:58:06.063Z,10
2022-11-26T14:04:51.196Z,10
2022-11-26T14:05:31.695Z,10
2022-11-26T14:06:12.181Z,10
2022-11-26T14:06:52.708Z,10
2022-11-26T14:07:33.211Z,10
2022-11-26T14:08:13.699Z,10
2022-11-26T14:08:54.215Z,10
2022-11-26T14:09:34.739Z,10
2022-11-26T14:10:15.191Z,10
2022-11-26T14:10:55.702Z,10
2022-11-26T14:18:21.393Z,10
2022-11-26T14:19:01.920Z,10
2022-11-26T14:19:42.366Z,10
2022-11-26T14:20:22.899Z,10
2022-11-26T14:21:03.395Z,10
2022-11-26T14:21:43.894Z,10
2022-11-26T14:22:24.414Z,10
2022-11-26T14:23:05.942Z,10
2022-11-26T14:24:25.941Z,10
2022-11-26T14:29:04.908Z,10
2022-11-26T14:29:41.454Z,10
2022-11-26T14:30:21.974Z,10
2022-11-26T14:35:46.046Z,10
2022-11-26T14:36:26.726Z,5
2022-11-26T14:37:07.181Z,5
2022-11-26T14:37:47.698Z,5
2022-11-26T14:38:28.233Z,5
2022-11-26T14:39:49.164Z,5
2022-11-26T14:40:29.682Z,5
2022-11-26T14:41:10.147Z,5
2022-11-26T14:48:35.827Z,20
2022-11-26T14:49:16.333Z,20
2022-11-26T14:49:56.814Z,20
2022-11-26T14:50:37.325Z,20
2022-11-26T14:51:17.907Z,20
2022-11-26T14:51:58.403Z,25
2022-11-26T14:55:37.703Z,15
2022-11-26T14:56:18.064Z,15
2022-11-26T14:56:58.595Z,15
2022-11-26T15:02:22.648Z,15
2022-11-26T15:03:04.269Z,15
2022-11-26T15:03:43.743Z,15
2022-11-26T15:04:24.074Z,15
2022-11-26T15:05:04.600Z,10
2022-11-26T15:05:45.393Z,10
2022-11-26T15:06:25.571Z,10
2022-11-26T15:07:46.594Z,10
2022-11-26T15:08:27.060Z,5
2022-11-26T15:15:12.136Z,5
2022-11-26T15:15:52.598Z,5
2022-11-26T15:16:33.112Z,5
2022-11-26T15:17:13.736Z,5
2022-11-26T15:17:54.164Z,0
2022-11-26T15:18:34.647Z,0
2022-11-26T15:19:15.185Z,0
2022-11-26T15:19:55.747Z,0
2022-11-26T15:20:36.225Z,0
2022-11-26T15:21:16.756Z,0
2022-11-26T15:28:42.377Z,0
2022-11-26T15:29:22.931Z,0
2022-11-26T15:30:03.477Z,0
2022-11-26T15:30:44.104Z,0
2022-11-26T15:31:24.636Z,0
2022-11-26T15:32:05.031Z,0
2022-11-26T15:32:45.541Z,0
2022-11-26T15:33:26.050Z,0
2022-11-26T15:34:06.577Z,0
2022-11-26T15:37:47.606Z,0
2022-11-26T15:38:27.961Z,0
2022-11-26T15:39:08.548Z,0
2022-11-26T15:44:34.586Z,0
2022-11-26T15:45:13.117Z,0
2022-11-26T15:45:53.633Z,0
2022-11-26T15:46:34.206Z,0
2022-11-26T15:47:14.588Z,0
2022-11-26T15:47:55.353Z,0
2022-11-26T15:48:51.378Z,0
2022-11-26T15:49:16.094Z,0
2022-11-26T15:49:56.632Z,0
2022-11-26T15:56:42.354Z,0
2022-11-26T15:57:22.819Z,0
2022-11-26T15:58:03.349Z,0
2022-11-26T15:58:43.955Z,0
2022-11-26T15:59:24.453Z,0
2022-11-26T16:00:04.929Z,0
2022-11-26T16:00:45.460Z,0
2022-11-26T16:01:26.061Z,0
2022-11-26T16:02:06.618Z,0
2022-11-26T16:02:47.159Z,0
2022-11-26T16:09:32.259Z,0
2022-11-26T16:10:12.740Z,0
2022-11-26T16:10:53.241Z,0
2022-11-26T16:11:33.709Z,0
2022-11-26T16:12:14.222Z,0
2022-11-26T16:12:54.772Z,0
2022-11-26T16:13:35.314Z,0
2022-11-26T16:14:15.863Z,0
2022-11-26T16:14:56.358Z,0
2022-11-26T16:15:36.884Z,0
2022-11-26T16:25:10.222Z,0
2022-11-26T16:25:50.699Z,0
2022-11-26T16:26:31.182Z,0
2022-11-26T16:31:55.286Z,0
2022-11-26T16:32:35.789Z,0
2022-11-26T16:33:16.263Z,0
2022-11-26T16:33:56.764Z,0
2022-11-26T16:34:37.623Z,0
2022-11-26T16:35:43.916Z,0
2022-11-26T16:35:58.210Z,0
2022-11-26T16:36:38.757Z,0
2022-11-26T16:37:19.248Z,0
2022-11-26T16:44:05.259Z,0
2022-11-26T16:44:45.737Z,0
2022-11-26T16:45:26.280Z,0
2022-11-26T16:46:06.831Z,0
2022-11-26T16:46:47.279Z,0
2022-11-26T16:47:27.717Z,0
2022-11-26T16:48:08.243Z,0
2022-11-26T16:48:48.755Z,0
2022-11-26T16:49:29.299Z,0
2022-11-26T16:55:35.092Z,0
2022-11-26T16:56:18.718Z,0
2022-11-26T16:56:56.337Z,0
2022-11-26T16:57:36.659Z,0
2022-11-26T16:58:17.360Z,0
2022-11-26T16:58:57.846Z,0
2022-11-26T16:59:38.456Z,0
2022-11-26T17:00:18.938Z,0
2022-11-26T17:00:59.406Z,0
2022-11-26T17:08:24.919Z,0
2022-11-26T17:09:05.452Z,0
2022-11-26T17:09:45.907Z,0
2022-11-26T17:10:26.455Z,0
2022-11-26T17:11:07.005Z,0
2022-11-26T17:11:47.531Z,0
2022-11-26T17:12:27.942Z,0
2022-11-26T17:13:08.459Z,0
2022-11-26T17:13:49.009Z,0
2022-11-26T17:14:29.491Z,0
2022-11-26T17:21:55.102Z,0
2022-11-26T17:22:35.608Z,0
2022-11-26T17:23:16.841Z,0
2022-11-26T17:23:57.324Z,0
2022-11-26T17:24:37.896Z,0
2022-11-26T17:25:18.350Z,0
2022-11-26T17:25:58.813Z,0
2022-11-26T17:26:39.291Z,0
2022-11-26T17:27:19.826Z,0
2022-11-26T17:33:25.550Z,0
2022-11-26T17:34:05.511Z,0
2022-11-26T17:34:45.982Z,0
2022-11-26T17:35:26.512Z,0
2022-11-26T17:36:07.009Z,0
2022-11-26T17:36:47.517Z,0
2022-11-26T17:37:28.043Z,0
2022-11-26T17:38:08.499Z,0
2022-11-26T17:38:49.035Z,0
2022-11-26T17:39:29.523Z,0
2022-11-26T17:47:35.811Z,0
2022-11-26T17:48:16.310Z,0
2022-11-26T17:48:59.722Z,0
2022-11-26T17:49:37.703Z,0
2022-11-26T17:50:17.760Z,0
2022-11-26T17:50:58.238Z,0
2022-11-26T17:51:38.748Z,0
2022-11-26T17:52:19.237Z,0
2022-11-26T17:52:59.717Z,0
2022-11-26T18:34:27.304Z,0
2022-11-26T18:35:07.923Z,0
2022-11-26T18:35:48.381Z,0
2022-11-26T18:36:28.883Z,0
2022-11-26T18:41:12.298Z,0
2022-11-26T18:41:57.341Z,0
2022-11-26T18:42:37.712Z,0
2022-11-26T18:43:13.779Z,0
2022-11-26T18:43:54.278Z,0
2022-11-26T18:44:34.751Z,0
2022-11-26T18:45:15.271Z,0
2022-11-26T18:45:55.781Z,0
2022-11-26T18:46:36.342Z,0
2022-11-26T18:47:16.704Z,0
2022-11-26T18:54:42.203Z,0
2022-11-26T18:55:22.674Z,0
2022-11-26T18:56:03.168Z,0
2022-11-26T18:56:43.595Z,0
2022-11-26T18:57:24.096Z,0
2022-11-26T18:58:08.014Z,0
2022-11-26T18:58:45.083Z,0
2022-11-26T18:59:25.606Z,0
2022-11-26T19:00:06.095Z,0
2022-11-26T19:00:46.587Z,0
2022-11-26T19:08:11.931Z,0
2022-11-26T19:08:52.419Z,0
2022-11-26T19:09:32.919Z,0
2022-11-26T19:10:13.389Z,0
2022-11-26T19:10:53.879Z,0
2022-11-26T19:12:14.932Z,0
2022-11-26T19:12:55.397Z,0
2022-11-26T19:13:35.918Z,0
2022-11-26T19:14:16.523Z,0
2022-11-26T19:21:02.211Z,0
2022-11-26T19:21:42.746Z,0
2022-11-26T19:22:23.209Z,0
2022-11-26T19:23:03.736Z,0
2022-11-26T19:23:44.268Z,0
2022-11-26T19:24:24.735Z,0
2022-11-26T19:25:05.262Z,0
2022-11-26T19:25:45.778Z,0
2022-11-26T19:26:26.318Z,0
2022-11-26T19:27:06.809Z,0
2022-11-26T19:34:32.280Z,0
2022-11-26T19:35:12.827Z,0
2022-11-26T19:35:53.341Z,0
2022-11-26T19:36:33.848Z,0
2022-11-26T19:37:14.372Z,0
2022-11-26T19:37:54.827Z,0
2022-11-26T19:38:35.367Z,0
2022-11-26T19:39:15.827Z,0
2022-11-26T19:39:56.388Z,0
2022-11-26T19:40:36.864Z,0
2022-11-26T19:47:21.884Z,0
2022-11-26T19:48:02.396Z,0
2022-11-26T19:48:42.918Z,0
2022-11-26T19:49:23.344Z,0
2022-11-26T19:50:03.830Z,0
2022-11-26T19:50:44.350Z,0
2022-11-26T19:51:24.844Z,0
2022-11-26T19:52:05.350Z,0
2022-11-26T19:52:48.011Z,0
2022-11-26T19:53:26.289Z,0
2022-11-26T19:54:06.820Z,0
2022-11-26T20:00:52.136Z,0
2022-11-26T20:01:32.653Z,0
2022-11-26T20:02:13.086Z,0
2022-11-26T20:02:53.578Z,0
2022-11-26T20:03:37.321Z,0
2022-11-26T20:04:14.493Z,0
2022-11-26T20:04:55.008Z,0
2022-11-26T20:05:35.535Z,0
2022-11-26T20:06:16.004Z,0
2022-11-26T20:06:56.525Z,0
2022-11-26T20:14:22.035Z,0
2022-11-26T20:15:02.490Z,0
2022-11-26T20:15:42.974Z,0
2022-11-26T20:16:23.508Z,0
2022-11-26T20:17:04.019Z,0
2022-11-26T20:17:44.486Z,0
2022-11-26T20:18:24.927Z,0
2022-11-26T20:19:05.453Z,0
2022-11-26T20:22:44.572Z,0
2022-11-26T20:23:25.252Z,0
2022-11-26T20:24:05.893Z,0
2022-11-26T20:28:49.431Z,0
2022-11-26T20:29:29.923Z,0
2022-11-26T20:30:10.410Z,0
2022-11-26T20:30:50.965Z,0
2022-11-26T20:31:31.397Z,0
2022-11-26T20:32:11.886Z,0
2022-11-26T20:32:52.317Z,0
2022-11-26T20:33:32.785Z,0
2022-11-26T20:34:13.264Z,0
2022-11-26T20:34:53.746Z,0
2022-11-26T20:35:34.204Z,0
2022-11-26T20:42:59.534Z,0
2022-11-26T20:43:39.944Z,0
2022-11-26T20:44:20.496Z,0
2022-11-26T20:45:00.876Z,0
2022-11-26T20:45:41.378Z,0
2022-11-26T20:46:21.885Z,0
2022-11-26T20:47:42.805Z,0
2022-11-26T20:48:23.277Z,0
2022-11-26T20:49:03.751Z,0
2022-11-26T20:57:09.586Z,0
2022-11-26T20:57:50.065Z,0
2022-11-26T20:58:30.562Z,0
2022-11-26T20:59:11.053Z,0
2022-11-26T20:59:51.586Z,0
2022-11-26T21:00:32.038Z,0
2022-11-26T21:01:12.576Z,0
2022-11-26T21:01:53.084Z,0
2022-11-26T21:02:33.627Z,0
2022-11-26T21:03:14.005Z,0
2022-11-26T21:10:39.357Z,0
2022-11-26T21:11:19.842Z,0
2022-11-26T21:12:00.336Z,0
2022-11-26T21:12:40.799Z,0
2022-11-26T21:13:21.288Z,0
2022-11-26T21:14:01.956Z,0
2022-11-26T21:14:42.281Z,0
2022-11-26T21:15:22.755Z,0
2022-11-26T21:16:03.256Z,0
2022-11-26T21:16:43.846Z,0
2022-11-26T21:24:49.585Z,0
2022-11-26T21:25:30.049Z,0
2022-11-26T21:26:10.530Z,0
2022-11-26T21:26:50.999Z,0
2022-11-26T21:27:31.495Z,0
2022-11-26T21:28:11.968Z,0
2022-11-26T21:28:52.431Z,0
2022-11-26T21:30:13.425Z,0
2022-11-26T21:30:53.951Z,0
2022-11-26T21:38:22.563Z,0
2022-11-26T21:38:59.831Z,0
2022-11-26T21:39:40.595Z,0
2022-11-26T21:40:20.803Z,0
2022-11-26T21:41:01.259Z,0
2022-11-26T21:41:41.745Z,0
2022-11-26T21:42:22.316Z,0
2022-11-26T21:43:02.772Z,0
2022-11-26T21:43:43.231Z,0
2022-11-26T21:44:23.710Z,0
2022-11-26T21:52:29.577Z,0
2022-11-26T21:53:10.043Z,0
2022-11-26T21:53:50.535Z,0
2022-11-26T21:54:31.019Z,0
2022-11-26T21:55:11.499Z,0
2022-11-26T21:55:51.985Z,0
2022-11-26T21:56:32.455Z,0
2022-11-26T21:57:12.920Z,0
2022-11-26T21:57:53.412Z,0
2022-11-26T21:58:33.883Z,0
2022-11-26T22:05:59.181Z,0
2022-11-26T22:06:39.653Z,0
2022-11-26T22:07:20.188Z,0
2022-11-26T22:08:00.652Z,0
2022-11-26T22:08:41.100Z,0
2022-11-26T22:09:21.584Z,0
2022-11-26T22:10:02.068Z,0
2022-11-26T22:10:42.617Z,0
2022-11-26T22:11:23.113Z,0
2022-11-26T22:12:03.574Z,0
2022-11-26T22:12:44.067Z,0
2022-11-26T22:20:09.324Z,0